sensor_id;sensor_type;location;lat;lon;timestamp;P1;durP1;ratioP1;P2;durP2;ratioP2
41755;SDS011;27435;48.480;9.258;2023-05-07T00:02:13;2.35;;;1.38;;
41755;SDS011;27435;48.480;9.258;2023-05-07T00:04:39;4.03;;;1.35;;
41755;SDS011;27435;48.480;9.258;2023-05-07T00:07:05;2.92;;;1.65;;
41755;SDS011;27435;48.480;9.258;2023-05-07T00:09:30;2.55;;;1.52;;
41755;SDS011;27435;48.480;9.258;2023-05-07T00:11:56;4.43;;;1.35;;
41755;SDS011;27435;48.480;9.258;2023-05-07T00:14:21;3.38;;;1.48;;
41755;SDS011;27435;48.480;9.258;2023-05-07T00:16:47;4.22;;;1.63;;
41755;SDS011;27435;48.480;9.258;2023-05-07T00:19:13;4.03;;;1.70;;
41755;SDS011;27435;48.480;9.258;2023-05-07T00:21:38;5.15;;;1.60;;
41755;SDS011;27435;48.480;9.258;2023-05-07T00:24:04;6.07;;;2.05;;
41755;SDS011;27435;48.480;9.258;2023-05-07T00:26:30;2.20;;;1.40;;
41755;SDS011;27435;48.480;9.258;2023-05-07T00:28:55;4.53;;;1.50;;
41755;SDS011;27435;48.480;9.258;2023-05-07T00:31:21;2.70;;;1.30;;
41755;SDS011;27435;48.480;9.258;2023-05-07T00:33:46;7.20;;;1.50;;
41755;SDS011;27435;48.480;9.258;2023-05-07T00:36:12;2.30;;;1.15;;
41755;SDS011;27435;48.480;9.258;2023-05-07T00:38:38;5.63;;;1.42;;
41755;SDS011;27435;48.480;9.258;2023-05-07T00:41:03;5.05;;;1.52;;
41755;SDS011;27435;48.480;9.258;2023-05-07T00:43:30;6.55;;;1.65;;
41755;SDS011;27435;48.480;9.258;2023-05-07T00:45:55;5.38;;;1.60;;
41755;SDS011;27435;48.480;9.258;2023-05-07T00:48:21;5.25;;;1.60;;
41755;SDS011;27435;48.480;9.258;2023-05-07T00:50:49;2.50;;;1.25;;
41755;SDS011;27435;48.480;9.258;2023-05-07T00:53:15;2.72;;;1.50;;
41755;SDS011;27435;48.480;9.258;2023-05-07T00:55:41;3.00;;;1.67;;
41755;SDS011;27435;48.480;9.258;2023-05-07T00:58:07;4.38;;;1.55;;
41755;SDS011;27435;48.480;9.258;2023-05-07T01:00:33;3.85;;;1.52;;
41755;SDS011;27435;48.480;9.258;2023-05-07T01:02:59;3.75;;;1.75;;
41755;SDS011;27435;48.480;9.258;2023-05-07T01:05:24;3.42;;;1.73;;
41755;SDS011;27435;48.480;9.258;2023-05-07T01:07:52;5.45;;;1.80;;
41755;SDS011;27435;48.480;9.258;2023-05-07T01:10:20;2.93;;;1.80;;
41755;SDS011;27435;48.480;9.258;2023-05-07T01:12:46;3.35;;;1.67;;
41755;SDS011;27435;48.480;9.258;2023-05-07T01:15:13;6.30;;;2.08;;
41755;SDS011;27435;48.480;9.258;2023-05-07T01:17:39;5.17;;;1.70;;
41755;SDS011;27435;48.480;9.258;2023-05-07T01:20:06;4.47;;;1.90;;
41755;SDS011;27435;48.480;9.258;2023-05-07T01:22:36;3.10;;;1.80;;
41755;SDS011;27435;48.480;9.258;2023-05-07T01:25:03;2.70;;;1.63;;
41755;SDS011;27435;48.480;9.258;2023-05-07T01:27:30;5.00;;;1.80;;
41755;SDS011;27435;48.480;9.258;2023-05-07T01:29:55;4.17;;;2.03;;
41755;SDS011;27435;48.480;9.258;2023-05-07T01:32:23;2.50;;;1.77;;
41755;SDS011;27435;48.480;9.258;2023-05-07T01:34:55;2.90;;;1.90;;
41755;SDS011;27435;48.480;9.258;2023-05-07T01:37:23;2.42;;;1.80;;
41755;SDS011;27435;48.480;9.258;2023-05-07T01:39:50;4.35;;;2.00;;
41755;SDS011;27435;48.480;9.258;2023-05-07T01:42:17;4.83;;;1.97;;
41755;SDS011;27435;48.480;9.258;2023-05-07T01:44:42;3.70;;;2.40;;
41755;SDS011;27435;48.480;9.258;2023-05-07T01:47:08;4.72;;;2.38;;
41755;SDS011;27435;48.480;9.258;2023-05-07T01:49:34;4.13;;;1.88;;
41755;SDS011;27435;48.480;9.258;2023-05-07T01:52:00;5.80;;;1.90;;
41755;SDS011;27435;48.480;9.258;2023-05-07T01:54:26;4.55;;;2.47;;
41755;SDS011;27435;48.480;9.258;2023-05-07T01:56:58;5.55;;;2.47;;
41755;SDS011;27435;48.480;9.258;2023-05-07T01:59:25;4.13;;;2.45;;
41755;SDS011;27435;48.480;9.258;2023-05-07T02:01:50;8.27;;;3.00;;
41755;SDS011;27435;48.480;9.258;2023-05-07T02:04:17;8.63;;;2.63;;
41755;SDS011;27435;48.480;9.258;2023-05-07T02:06:42;4.82;;;2.42;;
41755;SDS011;27435;48.480;9.258;2023-05-07T02:09:08;3.70;;;2.40;;
41755;SDS011;27435;48.480;9.258;2023-05-07T02:11:34;3.60;;;2.30;;
41755;SDS011;27435;48.480;9.258;2023-05-07T02:13:59;9.98;;;2.75;;
41755;SDS011;27435;48.480;9.258;2023-05-07T02:16:25;3.80;;;2.53;;
41755;SDS011;27435;48.480;9.258;2023-05-07T02:18:51;3.80;;;2.33;;
41755;SDS011;27435;48.480;9.258;2023-05-07T02:21:16;4.90;;;3.03;;
41755;SDS011;27435;48.480;9.258;2023-05-07T02:23:42;4.25;;;2.83;;
41755;SDS011;27435;48.480;9.258;2023-05-07T02:26:08;5.00;;;2.30;;
41755;SDS011;27435;48.480;9.258;2023-05-07T02:28:34;5.80;;;2.90;;
41755;SDS011;27435;48.480;9.258;2023-05-07T02:31:03;8.15;;;2.72;;
41755;SDS011;27435;48.480;9.258;2023-05-07T02:33:28;6.65;;;2.53;;
41755;SDS011;27435;48.480;9.258;2023-05-07T02:35:54;5.40;;;2.58;;
41755;SDS011;27435;48.480;9.258;2023-05-07T02:38:20;6.80;;;3.00;;
41755;SDS011;27435;48.480;9.258;2023-05-07T02:40:46;7.47;;;2.90;;
41755;SDS011;27435;48.480;9.258;2023-05-07T02:43:12;3.72;;;2.42;;
41755;SDS011;27435;48.480;9.258;2023-05-07T02:45:37;6.33;;;2.80;;
41755;SDS011;27435;48.480;9.258;2023-05-07T02:48:03;5.50;;;2.60;;
41755;SDS011;27435;48.480;9.258;2023-05-07T02:50:30;6.83;;;3.27;;
41755;SDS011;27435;48.480;9.258;2023-05-07T02:52:57;6.17;;;3.37;;
41755;SDS011;27435;48.480;9.258;2023-05-07T02:55:23;5.13;;;2.87;;
41755;SDS011;27435;48.480;9.258;2023-05-07T02:57:49;5.40;;;3.10;;
41755;SDS011;27435;48.480;9.258;2023-05-07T03:00:15;6.73;;;3.13;;
41755;SDS011;27435;48.480;9.258;2023-05-07T03:02:43;6.53;;;3.40;;
41755;SDS011;27435;48.480;9.258;2023-05-07T03:05:09;5.37;;;3.50;;
41755;SDS011;27435;48.480;9.258;2023-05-07T03:07:35;9.80;;;4.27;;
41755;SDS011;27435;48.480;9.258;2023-05-07T03:10:01;4.80;;;3.37;;
41755;SDS011;27435;48.480;9.258;2023-05-07T03:12:27;5.93;;;3.93;;
41755;SDS011;27435;48.480;9.258;2023-05-07T03:14:52;8.03;;;4.13;;
41755;SDS011;27435;48.480;9.258;2023-05-07T03:17:18;5.37;;;4.07;;
41755;SDS011;27435;48.480;9.258;2023-05-07T03:19:44;9.87;;;4.50;;
41755;SDS011;27435;48.480;9.258;2023-05-07T03:22:09;6.90;;;4.50;;
41755;SDS011;27435;48.480;9.258;2023-05-07T03:24:35;6.57;;;4.43;;
41755;SDS011;27435;48.480;9.258;2023-05-07T03:27:00;6.30;;;4.70;;
41755;SDS011;27435;48.480;9.258;2023-05-07T03:29:26;7.47;;;4.50;;
41755;SDS011;27435;48.480;9.258;2023-05-07T03:31:52;7.60;;;4.60;;
41755;SDS011;27435;48.480;9.258;2023-05-07T03:34:17;7.10;;;4.13;;
41755;SDS011;27435;48.480;9.258;2023-05-07T03:36:49;10.40;;;5.03;;
41755;SDS011;27435;48.480;9.258;2023-05-07T03:39:15;8.03;;;5.10;;
41755;SDS011;27435;48.480;9.258;2023-05-07T03:41:41;10.33;;;4.83;;
41755;SDS011;27435;48.480;9.258;2023-05-07T03:44:06;12.80;;;4.70;;
41755;SDS011;27435;48.480;9.258;2023-05-07T03:46:33;7.93;;;4.80;;
41755;SDS011;27435;48.480;9.258;2023-05-07T03:48:58;9.90;;;5.00;;
41755;SDS011;27435;48.480;9.258;2023-05-07T03:51:24;9.37;;;4.87;;
41755;SDS011;27435;48.480;9.258;2023-05-07T03:53:50;9.10;;;4.77;;
41755;SDS011;27435;48.480;9.258;2023-05-07T03:56:19;11.77;;;5.20;;
41755;SDS011;27435;48.480;9.258;2023-05-07T03:58:46;8.23;;;5.47;;
41755;SDS011;27435;48.480;9.258;2023-05-07T04:01:12;9.47;;;5.20;;
41755;SDS011;27435;48.480;9.258;2023-05-07T04:03:38;12.67;;;5.50;;
41755;SDS011;27435;48.480;9.258;2023-05-07T04:06:03;9.40;;;6.27;;
41755;SDS011;27435;48.480;9.258;2023-05-07T04:08:29;8.20;;;5.90;;
41755;SDS011;27435;48.480;9.258;2023-05-07T04:10:56;8.17;;;5.37;;
41755;SDS011;27435;48.480;9.258;2023-05-07T04:13:22;9.87;;;5.60;;
41755;SDS011;27435;48.480;9.258;2023-05-07T04:15:47;9.40;;;5.50;;
41755;SDS011;27435;48.480;9.258;2023-05-07T04:18:14;10.53;;;5.67;;
41755;SDS011;27435;48.480;9.258;2023-05-07T04:20:40;11.67;;;6.23;;
41755;SDS011;27435;48.480;9.258;2023-05-07T04:23:06;12.63;;;5.93;;
41755;SDS011;27435;48.480;9.258;2023-05-07T04:25:32;11.27;;;5.73;;
41755;SDS011;27435;48.480;9.258;2023-05-07T04:27:58;10.50;;;5.70;;
41755;SDS011;27435;48.480;9.258;2023-05-07T04:30:24;8.93;;;5.20;;
41755;SDS011;27435;48.480;9.258;2023-05-07T04:32:50;8.33;;;5.03;;
41755;SDS011;27435;48.480;9.258;2023-05-07T04:35:16;11.77;;;5.60;;
41755;SDS011;27435;48.480;9.258;2023-05-07T04:37:42;9.73;;;4.90;;
41755;SDS011;27435;48.480;9.258;2023-05-07T04:40:08;7.67;;;5.10;;
41755;SDS011;27435;48.480;9.258;2023-05-07T04:42:33;7.97;;;5.13;;
41755;SDS011;27435;48.480;9.258;2023-05-07T04:44:59;9.03;;;5.70;;
41755;SDS011;27435;48.480;9.258;2023-05-07T04:47:25;9.80;;;5.37;;
41755;SDS011;27435;48.480;9.258;2023-05-07T04:49:50;10.23;;;5.77;;
41755;SDS011;27435;48.480;9.258;2023-05-07T04:52:16;9.37;;;5.20;;
41755;SDS011;27435;48.480;9.258;2023-05-07T04:54:41;7.53;;;5.07;;
41755;SDS011;27435;48.480;9.258;2023-05-07T04:57:07;8.03;;;5.67;;
41755;SDS011;27435;48.480;9.258;2023-05-07T04:59:33;8.07;;;5.23;;
41755;SDS011;27435;48.480;9.258;2023-05-07T05:01:58;8.70;;;5.40;;
41755;SDS011;27435;48.480;9.258;2023-05-07T05:04:24;8.30;;;4.93;;
41755;SDS011;27435;48.480;9.258;2023-05-07T05:06:50;10.93;;;5.83;;
41755;SDS011;27435;48.480;9.258;2023-05-07T05:09:16;8.97;;;5.93;;
41755;SDS011;27435;48.480;9.258;2023-05-07T05:11:41;7.57;;;5.23;;
41755;SDS011;27435;48.480;9.258;2023-05-07T05:14:07;9.53;;;5.43;;
41755;SDS011;27435;48.480;9.258;2023-05-07T05:16:33;9.63;;;5.17;;
41755;SDS011;27435;48.480;9.258;2023-05-07T05:18:59;8.87;;;5.30;;
41755;SDS011;27435;48.480;9.258;2023-05-07T05:21:24;9.17;;;5.00;;
41755;SDS011;27435;48.480;9.258;2023-05-07T05:23:50;8.17;;;5.37;;
41755;SDS011;27435;48.480;9.258;2023-05-07T05:26:16;9.07;;;4.80;;
41755;SDS011;27435;48.480;9.258;2023-05-07T05:28:42;6.77;;;4.90;;
41755;SDS011;27435;48.480;9.258;2023-05-07T05:31:08;10.00;;;4.90;;
41755;SDS011;27435;48.480;9.258;2023-05-07T05:33:33;8.80;;;4.43;;
41755;SDS011;27435;48.480;9.258;2023-05-07T05:35:59;8.20;;;4.47;;
41755;SDS011;27435;48.480;9.258;2023-05-07T05:38:26;7.35;;;4.50;;
41755;SDS011;27435;48.480;9.258;2023-05-07T05:40:51;7.15;;;4.47;;
41755;SDS011;27435;48.480;9.258;2023-05-07T05:43:17;6.72;;;4.38;;
41755;SDS011;27435;48.480;9.258;2023-05-07T05:45:42;7.03;;;4.22;;
41755;SDS011;27435;48.480;9.258;2023-05-07T05:48:08;6.75;;;4.00;;
41755;SDS011;27435;48.480;9.258;2023-05-07T05:50:34;4.93;;;3.88;;
41755;SDS011;27435;48.480;9.258;2023-05-07T05:53:02;7.88;;;4.18;;
41755;SDS011;27435;48.480;9.258;2023-05-07T05:55:28;6.07;;;4.05;;
41755;SDS011;27435;48.480;9.258;2023-05-07T05:57:54;6.15;;;3.75;;
41755;SDS011;27435;48.480;9.258;2023-05-07T06:00:20;8.68;;;3.55;;
41755;SDS011;27435;48.480;9.258;2023-05-07T06:02:47;6.35;;;3.80;;
41755;SDS011;27435;48.480;9.258;2023-05-07T06:05:13;5.68;;;3.08;;
41755;SDS011;27435;48.480;9.258;2023-05-07T06:07:39;6.63;;;3.80;;
41755;SDS011;27435;48.480;9.258;2023-05-07T06:10:05;7.28;;;3.50;;
41755;SDS011;27435;48.480;9.258;2023-05-07T06:12:32;4.38;;;2.70;;
41755;SDS011;27435;48.480;9.258;2023-05-07T06:14:57;4.72;;;2.83;;
41755;SDS011;27435;48.480;9.258;2023-05-07T06:17:23;5.28;;;3.20;;
41755;SDS011;27435;48.480;9.258;2023-05-07T06:19:48;4.15;;;2.65;;
41755;SDS011;27435;48.480;9.258;2023-05-07T06:22:14;4.90;;;2.90;;
41755;SDS011;27435;48.480;9.258;2023-05-07T06:24:40;5.28;;;2.47;;
41755;SDS011;27435;48.480;9.258;2023-05-07T06:27:05;4.00;;;3.03;;
41755;SDS011;27435;48.480;9.258;2023-05-07T06:29:31;4.90;;;3.03;;
41755;SDS011;27435;48.480;9.258;2023-05-07T06:32:06;7.05;;;3.50;;
41755;SDS011;27435;48.480;9.258;2023-05-07T06:34:42;8.20;;;3.53;;
41755;SDS011;27435;48.480;9.258;2023-05-07T06:37:07;4.72;;;2.88;;
41755;SDS011;27435;48.480;9.258;2023-05-07T06:39:33;5.05;;;2.90;;
41755;SDS011;27435;48.480;9.258;2023-05-07T06:41:59;4.00;;;2.75;;
41755;SDS011;27435;48.480;9.258;2023-05-07T06:44:25;6.15;;;2.83;;
41755;SDS011;27435;48.480;9.258;2023-05-07T06:46:51;4.95;;;2.80;;
41755;SDS011;27435;48.480;9.258;2023-05-07T06:49:16;7.60;;;2.92;;
41755;SDS011;27435;48.480;9.258;2023-05-07T06:51:42;7.75;;;2.60;;
41755;SDS011;27435;48.480;9.258;2023-05-07T06:54:08;5.53;;;2.70;;
41755;SDS011;27435;48.480;9.258;2023-05-07T06:56:33;5.10;;;2.40;;
41755;SDS011;27435;48.480;9.258;2023-05-07T06:59:00;7.22;;;3.50;;
41755;SDS011;27435;48.480;9.258;2023-05-07T07:01:26;3.80;;;2.55;;
41755;SDS011;27435;48.480;9.258;2023-05-07T07:03:52;4.70;;;2.40;;
41755;SDS011;27435;48.480;9.258;2023-05-07T07:06:18;5.35;;;2.53;;
41755;SDS011;27435;48.480;9.258;2023-05-07T07:08:44;6.05;;;2.72;;
41755;SDS011;27435;48.480;9.258;2023-05-07T07:11:09;6.70;;;2.53;;
41755;SDS011;27435;48.480;9.258;2023-05-07T07:13:35;4.47;;;2.47;;
41755;SDS011;27435;48.480;9.258;2023-05-07T07:16:01;9.73;;;2.97;;
41755;SDS011;27435;48.480;9.258;2023-05-07T07:18:27;3.90;;;2.60;;
41755;SDS011;27435;48.480;9.258;2023-05-07T07:20:53;7.22;;;2.42;;
41755;SDS011;27435;48.480;9.258;2023-05-07T07:23:19;3.53;;;2.63;;
41755;SDS011;27435;48.480;9.258;2023-05-07T07:25:44;6.75;;;3.35;;
41755;SDS011;27435;48.480;9.258;2023-05-07T07:28:10;8.40;;;3.10;;
41755;SDS011;27435;48.480;9.258;2023-05-07T07:30:36;5.40;;;2.78;;
41755;SDS011;27435;48.480;9.258;2023-05-07T07:33:02;5.28;;;3.17;;
41755;SDS011;27435;48.480;9.258;2023-05-07T07:35:37;4.82;;;2.90;;
41755;SDS011;27435;48.480;9.258;2023-05-07T07:38:02;6.03;;;3.28;;
41755;SDS011;27435;48.480;9.258;2023-05-07T07:40:37;5.25;;;3.33;;
41755;SDS011;27435;48.480;9.258;2023-05-07T07:43:18;7.20;;;3.78;;
41755;SDS011;27435;48.480;9.258;2023-05-07T07:45:43;7.45;;;3.00;;
41755;SDS011;27435;48.480;9.258;2023-05-07T07:48:09;8.27;;;3.60;;
41755;SDS011;27435;48.480;9.258;2023-05-07T07:50:34;7.47;;;3.28;;
41755;SDS011;27435;48.480;9.258;2023-05-07T07:53:00;3.28;;;2.30;;
41755;SDS011;27435;48.480;9.258;2023-05-07T07:55:28;4.45;;;3.17;;
41755;SDS011;27435;48.480;9.258;2023-05-07T07:58:09;5.93;;;3.20;;
41755;SDS011;27435;48.480;9.258;2023-05-07T08:00:35;3.92;;;2.30;;
41755;SDS011;27435;48.480;9.258;2023-05-07T08:03:01;5.32;;;2.47;;
41755;SDS011;27435;48.480;9.258;2023-05-07T08:05:28;6.07;;;2.53;;
41755;SDS011;27435;48.480;9.258;2023-05-07T08:07:54;5.97;;;2.42;;
41755;SDS011;27435;48.480;9.258;2023-05-07T08:10:21;3.53;;;2.30;;
41755;SDS011;27435;48.480;9.258;2023-05-07T08:12:50;7.03;;;2.70;;
41755;SDS011;27435;48.480;9.258;2023-05-07T08:15:16;3.30;;;2.15;;
41755;SDS011;27435;48.480;9.258;2023-05-07T08:17:42;5.85;;;2.10;;
41755;SDS011;27435;48.480;9.258;2023-05-07T08:20:08;3.55;;;2.00;;
41755;SDS011;27435;48.480;9.258;2023-05-07T08:22:35;3.42;;;2.20;;
41755;SDS011;27435;48.480;9.258;2023-05-07T08:25:01;5.65;;;2.33;;
41755;SDS011;27435;48.480;9.258;2023-05-07T08:27:27;6.72;;;2.83;;
41755;SDS011;27435;48.480;9.258;2023-05-07T08:29:53;4.72;;;2.30;;
41755;SDS011;27435;48.480;9.258;2023-05-07T08:32:18;3.55;;;2.03;;
41755;SDS011;27435;48.480;9.258;2023-05-07T08:34:44;3.65;;;2.20;;
41755;SDS011;27435;48.480;9.258;2023-05-07T08:37:09;4.30;;;2.30;;
41755;SDS011;27435;48.480;9.258;2023-05-07T08:39:35;5.03;;;2.22;;
41755;SDS011;27435;48.480;9.258;2023-05-07T08:42:03;5.50;;;2.63;;
41755;SDS011;27435;48.480;9.258;2023-05-07T08:44:33;8.15;;;2.97;;
41755;SDS011;27435;48.480;9.258;2023-05-07T08:47:00;8.43;;;3.13;;
41755;SDS011;27435;48.480;9.258;2023-05-07T08:49:27;5.18;;;3.42;;
41755;SDS011;27435;48.480;9.258;2023-05-07T08:51:53;7.20;;;3.28;;
41755;SDS011;27435;48.480;9.258;2023-05-07T08:54:20;5.43;;;3.42;;
41755;SDS011;27435;48.480;9.258;2023-05-07T08:56:46;4.57;;;2.88;;
41755;SDS011;27435;48.480;9.258;2023-05-07T08:59:12;4.32;;;2.92;;
41755;SDS011;27435;48.480;9.258;2023-05-07T09:01:37;4.63;;;2.80;;
41755;SDS011;27435;48.480;9.258;2023-05-07T09:04:03;3.95;;;3.08;;
41755;SDS011;27435;48.480;9.258;2023-05-07T09:06:30;6.93;;;3.05;;
41755;SDS011;27435;48.480;9.258;2023-05-07T09:08:57;6.03;;;4.00;;
41755;SDS011;27435;48.480;9.258;2023-05-07T09:11:25;4.93;;;2.92;;
41755;SDS011;27435;48.480;9.258;2023-05-07T09:13:54;4.78;;;3.10;;
41755;SDS011;27435;48.480;9.258;2023-05-07T09:16:22;5.35;;;2.97;;
41755;SDS011;27435;48.480;9.258;2023-05-07T09:18:53;6.13;;;3.60;;
41755;SDS011;27435;48.480;9.258;2023-05-07T09:21:19;5.38;;;3.15;;
41755;SDS011;27435;48.480;9.258;2023-05-07T09:23:47;8.20;;;3.63;;
41755;SDS011;27435;48.480;9.258;2023-05-07T09:26:15;6.18;;;3.20;;
41755;SDS011;27435;48.480;9.258;2023-05-07T09:28:41;8.50;;;2.70;;
41755;SDS011;27435;48.480;9.258;2023-05-07T09:31:08;4.72;;;2.72;;
41755;SDS011;27435;48.480;9.258;2023-05-07T09:33:34;7.88;;;2.63;;
41755;SDS011;27435;48.480;9.258;2023-05-07T09:36:03;4.82;;;2.42;;
41755;SDS011;27435;48.480;9.258;2023-05-07T09:38:30;3.78;;;2.00;;
41755;SDS011;27435;48.480;9.258;2023-05-07T09:41:04;4.65;;;1.92;;
41755;SDS011;27435;48.480;9.258;2023-05-07T09:43:38;3.85;;;1.77;;
41755;SDS011;27435;48.480;9.258;2023-05-07T09:46:14;4.55;;;1.88;;
41755;SDS011;27435;48.480;9.258;2023-05-07T09:48:43;2.78;;;1.50;;
41755;SDS011;27435;48.480;9.258;2023-05-07T09:51:18;6.72;;;2.03;;
41755;SDS011;27435;48.480;9.258;2023-05-07T09:53:50;3.80;;;1.50;;
41755;SDS011;27435;48.480;9.258;2023-05-07T09:56:18;4.38;;;1.38;;
41755;SDS011;27435;48.480;9.258;2023-05-07T09:58:45;3.80;;;1.35;;
41755;SDS011;27435;48.480;9.258;2023-05-07T10:01:12;3.05;;;1.23;;
41755;SDS011;27435;48.480;9.258;2023-05-07T10:03:39;4.03;;;1.25;;
41755;SDS011;27435;48.480;9.258;2023-05-07T10:06:09;5.18;;;1.40;;
41755;SDS011;27435;48.480;9.258;2023-05-07T10:08:36;3.25;;;1.13;;
41755;SDS011;27435;48.480;9.258;2023-05-07T10:11:03;4.60;;;1.63;;
41755;SDS011;27435;48.480;9.258;2023-05-07T10:13:30;3.10;;;1.50;;
41755;SDS011;27435;48.480;9.258;2023-05-07T10:15:56;4.07;;;1.38;;
41755;SDS011;27435;48.480;9.258;2023-05-07T10:18:22;3.53;;;1.40;;
41755;SDS011;27435;48.480;9.258;2023-05-07T10:20:54;3.30;;;1.40;;
41755;SDS011;27435;48.480;9.258;2023-05-07T10:23:23;2.83;;;1.42;;
41755;SDS011;27435;48.480;9.258;2023-05-07T10:25:49;2.35;;;1.08;;
41755;SDS011;27435;48.480;9.258;2023-05-07T10:28:15;2.03;;;0.90;;
41755;SDS011;27435;48.480;9.258;2023-05-07T10:30:54;3.53;;;1.20;;
41755;SDS011;27435;48.480;9.258;2023-05-07T10:33:48;3.13;;;1.15;;
41755;SDS011;27435;48.480;9.258;2023-05-07T10:36:16;3.47;;;1.15;;
41755;SDS011;27435;48.480;9.258;2023-05-07T10:38:43;1.60;;;0.95;;
41755;SDS011;27435;48.480;9.258;2023-05-07T10:41:09;3.65;;;1.13;;
41755;SDS011;27435;48.480;9.258;2023-05-07T10:43:43;4.43;;;1.30;;
41755;SDS011;27435;48.480;9.258;2023-05-07T10:46:17;4.68;;;1.20;;
41755;SDS011;27435;48.480;9.258;2023-05-07T10:51:28;2.17;;;1.17;;
41755;SDS011;27435;48.480;9.258;2023-05-07T10:56:36;2.72;;;1.10;;
41755;SDS011;27435;48.480;9.258;2023-05-07T11:01:55;2.60;;;1.08;;
41755;SDS011;27435;48.480;9.258;2023-05-07T11:04:22;3.83;;;1.20;;
41755;SDS011;27435;48.480;9.258;2023-05-07T11:12:45;2.05;;;1.00;;
41755;SDS011;27435;48.480;9.258;2023-05-07T11:15:13;5.38;;;1.45;;
41755;SDS011;27435;48.480;9.258;2023-05-07T11:17:54;4.72;;;1.20;;
41755;SDS011;27435;48.480;9.258;2023-05-07T11:20:21;2.58;;;1.40;;
41755;SDS011;27435;48.480;9.258;2023-05-07T11:26:00;5.78;;;1.63;;
41755;SDS011;27435;48.480;9.258;2023-05-07T11:28:38;4.10;;;1.65;;
41755;SDS011;27435;48.480;9.258;2023-05-07T11:31:06;4.82;;;2.20;;
41755;SDS011;27435;48.480;9.258;2023-05-07T11:33:32;4.63;;;1.67;;
41755;SDS011;27435;48.480;9.258;2023-05-07T11:35:59;11.10;;;2.10;;
41755;SDS011;27435;48.480;9.258;2023-05-07T11:38:25;4.32;;;2.00;;
41755;SDS011;27435;48.480;9.258;2023-05-07T11:43:17;6.45;;;2.35;;
41755;SDS011;27435;48.480;9.258;2023-05-07T11:45:46;3.35;;;1.77;;
41755;SDS011;27435;48.480;9.258;2023-05-07T11:48:13;4.35;;;2.10;;
41755;SDS011;27435;48.480;9.258;2023-05-07T11:50:52;7.82;;;2.75;;
41755;SDS011;27435;48.480;9.258;2023-05-07T11:53:24;8.13;;;1.95;;
41755;SDS011;27435;48.480;9.258;2023-05-07T11:55:57;9.02;;;2.40;;
41755;SDS011;27435;48.480;9.258;2023-05-07T11:58:23;4.30;;;2.33;;
41755;SDS011;27435;48.480;9.258;2023-05-07T12:00:53;8.90;;;2.53;;
41755;SDS011;27435;48.480;9.258;2023-05-07T12:03:19;6.70;;;2.38;;
41755;SDS011;27435;48.480;9.258;2023-05-07T12:05:46;4.90;;;1.70;;
41755;SDS011;27435;48.480;9.258;2023-05-07T12:08:15;7.60;;;2.20;;
41755;SDS011;27435;48.480;9.258;2023-05-07T12:10:42;3.67;;;1.92;;
41755;SDS011;27435;48.480;9.258;2023-05-07T12:13:18;4.30;;;1.90;;
41755;SDS011;27435;48.480;9.258;2023-05-07T12:15:45;3.17;;;1.77;;
41755;SDS011;27435;48.480;9.258;2023-05-07T12:18:11;4.22;;;2.13;;
41755;SDS011;27435;48.480;9.258;2023-05-07T12:20:37;6.68;;;2.38;;
41755;SDS011;27435;48.480;9.258;2023-05-07T12:23:04;3.60;;;1.88;;
41755;SDS011;27435;48.480;9.258;2023-05-07T12:25:36;4.75;;;1.67;;
41755;SDS011;27435;48.480;9.258;2023-05-07T12:28:02;3.60;;;2.03;;
41755;SDS011;27435;48.480;9.258;2023-05-07T12:30:30;3.83;;;2.05;;
41755;SDS011;27435;48.480;9.258;2023-05-07T12:32:57;4.82;;;2.03;;
41755;SDS011;27435;48.480;9.258;2023-05-07T12:35:26;2.83;;;1.63;;
41755;SDS011;27435;48.480;9.258;2023-05-07T12:37:56;2.67;;;1.48;;
41755;SDS011;27435;48.480;9.258;2023-05-07T12:40:24;4.38;;;1.80;;
41755;SDS011;27435;48.480;9.258;2023-05-07T12:45:25;6.28;;;2.30;;
41755;SDS011;27435;48.480;9.258;2023-05-07T12:47:51;3.25;;;1.60;;
41755;SDS011;27435;48.480;9.258;2023-05-07T12:50:17;3.88;;;1.70;;
41755;SDS011;27435;48.480;9.258;2023-05-07T12:52:43;4.25;;;2.15;;
41755;SDS011;27435;48.480;9.258;2023-05-07T12:55:11;4.88;;;2.15;;
41755;SDS011;27435;48.480;9.258;2023-05-07T12:57:39;3.97;;;2.10;;
41755;SDS011;27435;48.480;9.258;2023-05-07T13:00:07;6.78;;;3.53;;
41755;SDS011;27435;48.480;9.258;2023-05-07T13:02:33;6.78;;;2.40;;
41755;SDS011;27435;48.480;9.258;2023-05-07T13:05:02;8.80;;;2.60;;
41755;SDS011;27435;48.480;9.258;2023-05-07T13:07:36;4.80;;;2.63;;
41755;SDS011;27435;48.480;9.258;2023-05-07T13:10:03;3.50;;;2.75;;
41755;SDS011;27435;48.480;9.258;2023-05-07T13:12:29;3.80;;;2.30;;
41755;SDS011;27435;48.480;9.258;2023-05-07T13:14:55;6.63;;;2.40;;
41755;SDS011;27435;48.480;9.258;2023-05-07T13:17:21;7.15;;;4.15;;
41755;SDS011;27435;48.480;9.258;2023-05-07T13:19:56;5.72;;;2.25;;
41755;SDS011;27435;48.480;9.258;2023-05-07T13:22:21;4.45;;;2.35;;
41755;SDS011;27435;48.480;9.258;2023-05-07T13:24:47;4.63;;;2.17;;
41755;SDS011;27435;48.480;9.258;2023-05-07T13:27:12;5.55;;;2.58;;
41755;SDS011;27435;48.480;9.258;2023-05-07T13:29:41;6.55;;;2.40;;
41755;SDS011;27435;48.480;9.258;2023-05-07T13:32:06;8.20;;;3.03;;
41755;SDS011;27435;48.480;9.258;2023-05-07T13:34:32;4.65;;;2.80;;
41755;SDS011;27435;48.480;9.258;2023-05-07T13:36:58;4.95;;;2.50;;
41755;SDS011;27435;48.480;9.258;2023-05-07T13:39:23;5.40;;;3.40;;
41755;SDS011;27435;48.480;9.258;2023-05-07T13:41:49;9.00;;;3.00;;
41755;SDS011;27435;48.480;9.258;2023-05-07T13:44:14;8.27;;;3.35;;
41755;SDS011;27435;48.480;9.258;2023-05-07T13:46:40;14.80;;;6.45;;
41755;SDS011;27435;48.480;9.258;2023-05-07T13:49:06;15.18;;;5.35;;
41755;SDS011;27435;48.480;9.258;2023-05-07T13:51:31;7.97;;;3.65;;
41755;SDS011;27435;48.480;9.258;2023-05-07T13:53:57;8.05;;;4.00;;
41755;SDS011;27435;48.480;9.258;2023-05-07T13:56:23;9.20;;;4.05;;
41755;SDS011;27435;48.480;9.258;2023-05-07T13:58:49;7.72;;;4.53;;
41755;SDS011;27435;48.480;9.258;2023-05-07T14:01:14;8.15;;;4.60;;
41755;SDS011;27435;48.480;9.258;2023-05-07T14:03:40;7.00;;;3.72;;
41755;SDS011;27435;48.480;9.258;2023-05-07T14:06:06;7.00;;;3.75;;
41755;SDS011;27435;48.480;9.258;2023-05-07T14:08:31;6.03;;;3.83;;
41755;SDS011;27435;48.480;9.258;2023-05-07T14:10:57;6.55;;;3.90;;
41755;SDS011;27435;48.480;9.258;2023-05-07T14:13:23;7.55;;;3.75;;
41755;SDS011;27435;48.480;9.258;2023-05-07T14:15:48;8.75;;;3.72;;
41755;SDS011;27435;48.480;9.258;2023-05-07T14:18:14;11.50;;;4.30;;
41755;SDS011;27435;48.480;9.258;2023-05-07T14:20:41;11.23;;;3.65;;
41755;SDS011;27435;48.480;9.258;2023-05-07T14:23:13;13.43;;;5.65;;
41755;SDS011;27435;48.480;9.258;2023-05-07T14:25:40;12.85;;;6.15;;
41755;SDS011;27435;48.480;9.258;2023-05-07T14:28:06;16.27;;;9.10;;
41755;SDS011;27435;48.480;9.258;2023-05-07T14:34:22;51.55;;;28.58;;
41755;SDS011;27435;48.480;9.258;2023-05-07T14:36:57;11.35;;;6.38;;
41755;SDS011;27435;48.480;9.258;2023-05-07T14:39:24;12.88;;;5.97;;
41755;SDS011;27435;48.480;9.258;2023-05-07T14:41:53;14.05;;;4.88;;
41755;SDS011;27435;48.480;9.258;2023-05-07T14:44:26;8.07;;;5.05;;
41755;SDS011;27435;48.480;9.258;2023-05-07T14:46:52;9.88;;;6.28;;
41755;SDS011;27435;48.480;9.258;2023-05-07T14:49:21;7.22;;;4.20;;
41755;SDS011;27435;48.480;9.258;2023-05-07T14:51:47;7.25;;;4.60;;
41755;SDS011;27435;48.480;9.258;2023-05-07T14:54:13;5.90;;;3.30;;
41755;SDS011;27435;48.480;9.258;2023-05-07T14:56:39;10.88;;;5.50;;
41755;SDS011;27435;48.480;9.258;2023-05-07T14:59:06;6.80;;;4.40;;
41755;SDS011;27435;48.480;9.258;2023-05-07T15:01:36;19.52;;;9.63;;
41755;SDS011;27435;48.480;9.258;2023-05-07T15:04:05;8.82;;;4.00;;
41755;SDS011;27435;48.480;9.258;2023-05-07T15:06:31;5.40;;;2.95;;
41755;SDS011;27435;48.480;9.258;2023-05-07T15:08:57;10.10;;;2.60;;
41755;SDS011;27435;48.480;9.258;2023-05-07T15:11:23;6.22;;;2.90;;